createdAt,value
2022-11-26T00:00:20.278Z,3.50
2022-11-26T00:02:48.113Z,3.60
2022-11-26T00:05:16.651Z,3.60
2022-11-26T00:07:48.901Z,3.60
2022-11-26T00:10:23.030Z,3.50
2022-11-26T00:12:50.092Z,3.40
2022-11-26T00:15:20.593Z,3.30
2022-11-26T00:17:48.067Z,3.30
2022-11-26T00:20:15.555Z,3.30
2022-11-26T00:22:46.823Z,3.30
2022-11-26T00:25:21.633Z,3.40
2022-11-26T00:27:49.731Z,3.30
2022-11-26T00:30:22.396Z,3.30
2022-11-26T00:32:49.573Z,3.30
2022-11-26T00:35:16.890Z,3.20
2022-11-26T00:37:55.365Z,3.20
2022-11-26T00:40:30.572Z,3.20
2022-11-26T00:43:01.667Z,3.20
2022-11-26T00:45:31.102Z,3.20
2022-11-26T00:47:57.977Z,3.20
2022-11-26T00:50:27.200Z,3.20
2022-11-26T00:52:57.379Z,3.30
2022-11-26T00:55:33.580Z,3.20
2022-11-26T00:58:00.980Z,3.30
2022-11-26T01:00:30.818Z,3.30
2022-11-26T01:02:58.068Z,3.60
2022-11-26T01:05:26.896Z,3.50
2022-11-26T01:07:54.063Z,3.60
2022-11-26T01:10:26.089Z,3.70
2022-11-26T01:12:54.071Z,3.80
2022-11-26T01:15:23.729Z,3.90
2022-11-26T01:17:52.363Z,3.90
2022-11-26T01:20:29.538Z,4.00
2022-11-26T01:22:58.206Z,4.00
2022-11-26T01:25:26.626Z,3.90
2022-11-26T01:27:54.252Z,3.80
2022-11-26T01:30:27.880Z,3.70
2022-11-26T01:32:54.797Z,3.70
2022-11-26T01:35:22.092Z,3.70
2022-11-26T01:37:49.634Z,3.70
2022-11-26T01:40:25.519Z,3.70
2022-11-26T01:43:05.868Z,3.60
2022-11-26T01:45:32.810Z,3.70
2022-11-26T01:47:59.656Z,3.80
2022-11-26T01:50:29.641Z,3.80
2022-11-26T01:53:23.353Z,3.80
2022-11-26T01:56:11.080Z,3.90
2022-11-26T01:58:45.107Z,3.90
2022-11-26T02:01:12.072Z,3.90
2022-11-26T02:03:52.825Z,3.80
2022-11-26T02:06:23.768Z,3.60
2022-11-26T02:08:50.580Z,3.60
2022-11-26T02:11:24.797Z,3.60
2022-11-26T02:13:55.715Z,3.50
2022-11-26T02:16:25.665Z,3.50
2022-11-26T02:19:31.940Z,3.50
2022-11-26T02:22:31.475Z,3.60
2022-11-26T02:25:14.552Z,3.60
2022-11-26T02:28:11.738Z,3.70
2022-11-26T02:30:47.654Z,3.60
2022-11-26T02:33:22.690Z,3.70
2022-11-26T02:35:56.940Z,3.70
2022-11-26T02:38:26.684Z,3.70
2022-11-26T02:40:53.746Z,3.80
2022-11-26T02:43:20.924Z,3.90
2022-11-26T02:45:51.686Z,3.90
2022-11-26T02:48:24.187Z,4.00
2022-11-26T02:50:56.980Z,4.00
2022-11-26T02:53:26.226Z,4.00
2022-11-26T02:56:10.700Z,4.20
2022-11-26T02:58:38.255Z,4.10
2022-11-26T03:01:15.736Z,4.10
2022-11-26T03:03:50.713Z,4.00
2022-11-26T03:06:19.123Z,3.90
2022-11-26T03:08:46.094Z,3.80
2022-11-26T03:11:13.293Z,3.80
2022-11-26T03:13:40.140Z,3.70
2022-11-26T03:16:07.230Z,3.70
2022-11-26T03:18:34.069Z,3.70
2022-11-26T03:21:00.937Z,3.70
2022-11-26T03:23:27.777Z,3.70
2022-11-26T03:25:54.586Z,3.60
2022-11-26T03:28:21.396Z,3.60
2022-11-26T03:30:50.624Z,3.70
2022-11-26T03:33:17.603Z,3.70
2022-11-26T03:35:44.554Z,3.70
2022-11-26T03:38:11.410Z,3.80
2022-11-26T03:40:38.216Z,3.80
2022-11-26T03:43:05.064Z,3.70
2022-11-26T03:45:32.074Z,3.70
2022-11-26T03:47:58.927Z,3.70
2022-11-26T03:50:25.733Z,3.70
2022-11-26T03:52:53.385Z,3.70
2022-11-26T03:55:20.322Z,3.60
2022-11-26T03:57:47.166Z,3.70
2022-11-26T04:00:14.437Z,3.60
2022-11-26T04:02:41.244Z,3.60
2022-11-26T04:05:08.297Z,3.80
2022-11-26T04:07:35.191Z,3.90
2022-11-26T04:10:02.092Z,3.90
2022-11-26T04:12:28.887Z,3.90
2022-11-26T04:14:55.709Z,4.00
2022-11-26T04:17:22.555Z,4.10
2022-11-26T04:19:49.374Z,4.10
2022-11-26T04:22:16.573Z,4.10
2022-11-26T04:24:43.378Z,4.20
2022-11-26T04:27:10.359Z,4.20
2022-11-26T04:29:37.503Z,4.20
2022-11-26T04:32:05.240Z,4.20
2022-11-26T04:34:32.317Z,4.10
2022-11-26T04:36:59.177Z,4.10
2022-11-26T04:39:25.993Z,4.10
2022-11-26T04:41:53.193Z,4.10
2022-11-26T04:44:20.046Z,4.00
2022-11-26T04:46:46.855Z,3.90
2022-11-26T04:49:14.716Z,3.80
2022-11-26T04:51:41.610Z,3.80
2022-11-26T04:54:12.719Z,3.70
2022-11-26T04:56:40.093Z,3.70
2022-11-26T04:59:06.931Z,3.70
2022-11-26T05:01:33.907Z,3.70
2022-11-26T05:04:00.974Z,3.70
2022-11-26T05:06:27.806Z,3.70
2022-11-26T05:08:54.658Z,3.80
2022-11-26T05:11:21.463Z,3.70
2022-11-26T05:13:48.239Z,3.70
2022-11-26T05:16:15.123Z,3.80
2022-11-26T05:18:42.000Z,3.90
2022-11-26T05:21:08.819Z,4.00
2022-11-26T05:23:35.649Z,4.00
2022-11-26T05:26:02.492Z,4.10
2022-11-26T05:28:29.412Z,4.10
2022-11-26T05:31:03.910Z,4.20
2022-11-26T05:33:31.031Z,4.00
2022-11-26T05:35:57.854Z,3.90
2022-11-26T05:38:24.872Z,3.90
2022-11-26T05:40:51.812Z,3.90
2022-11-26T05:43:18.892Z,4.10
2022-11-26T05:45:45.834Z,3.90
2022-11-26T05:48:12.740Z,3.90
2022-11-26T05:50:39.641Z,4.00
2022-11-26T05:53:06.781Z,3.90
2022-11-26T05:55:33.642Z,3.90
2022-11-26T05:58:00.531Z,3.90
2022-11-26T06:00:27.445Z,4.00
2022-11-26T06:02:54.395Z,4.20
2022-11-26T06:05:22.023Z,3.90
2022-11-26T06:07:48.861Z,3.90
2022-11-26T06:10:15.729Z,4.00
2022-11-26T06:12:42.582Z,4.10
2022-11-26T06:15:09.821Z,4.20
2022-11-26T06:17:36.642Z,4.20
2022-11-26T06:20:04.567Z,4.30
2022-11-26T06:22:35.721Z,4.30
2022-11-26T06:25:02.552Z,4.40
2022-11-26T06:27:29.369Z,4.30
2022-11-26T06:29:56.203Z,4.30
2022-11-26T06:32:23.047Z,4.40
2022-11-26T06:34:53.826Z,4.30
2022-11-26T06:37:21.056Z,4.20
2022-11-26T06:39:47.855Z,4.20
2022-11-26T06:42:14.665Z,4.30
2022-11-26T06:44:41.660Z,4.30
2022-11-26T06:47:14.610Z,4.40
2022-11-26T06:49:41.525Z,4.50
2022-11-26T06:52:08.515Z,4.40
2022-11-26T06:54:35.498Z,4.40
2022-11-26T06:57:02.413Z,4.50
2022-11-26T06:59:29.295Z,4.50
2022-11-26T07:01:56.206Z,4.50
2022-11-26T07:04:23.265Z,4.50
2022-11-26T07:06:50.162Z,4.60
2022-11-26T07:09:17.017Z,4.50
2022-11-26T07:11:43.881Z,4.60
2022-11-26T07:14:10.689Z,4.60
2022-11-26T07:16:37.797Z,4.50
2022-11-26T07:19:04.683Z,4.50
2022-11-26T07:21:31.598Z,4.50
2022-11-26T07:23:59.166Z,4.50
2022-11-26T07:26:26.007Z,4.60
2022-11-26T07:28:53.916Z,4.70
2022-11-26T07:31:22.769Z,4.70
2022-11-26T07:33:50.380Z,4.70
2022-11-26T07:36:28.512Z,4.70
2022-11-26T07:38:59.359Z,4.80
2022-11-26T07:41:27.440Z,4.80
2022-11-26T07:43:54.439Z,4.80
2022-11-26T07:46:23.571Z,4.90
2022-11-26T07:48:50.771Z,4.90
2022-11-26T07:51:26.770Z,4.80
2022-11-26T07:53:54.666Z,4.80
2022-11-26T07:56:21.637Z,4.90
2022-11-26T07:58:48.804Z,4.80
2022-11-26T08:01:18.312Z,4.70
2022-11-26T08:03:47.132Z,4.70
2022-11-26T08:06:19.675Z,4.70
2022-11-26T08:08:46.775Z,4.80
2022-11-26T08:11:23.112Z,4.80
2022-11-26T08:13:57.368Z,4.80
2022-11-26T08:16:24.230Z,4.80
2022-11-26T08:18:55.557Z,4.90
2022-11-26T08:21:23.486Z,5.00
2022-11-26T08:23:52.011Z,5.10
2022-11-26T08:26:25.208Z,5.10
2022-11-26T08:28:58.878Z,5.10
2022-11-26T08:31:28.072Z,5.10
2022-11-26T08:34:00.105Z,5.10
2022-11-26T08:36:28.488Z,5.10
2022-11-26T08:38:55.685Z,5.10
2022-11-26T08:41:23.386Z,5.20
2022-11-26T08:44:07.554Z,5.20
2022-11-26T08:46:39.764Z,5.20
2022-11-26T08:49:08.409Z,5.20
2022-11-26T08:51:35.565Z,5.30
2022-11-26T08:54:02.616Z,5.30
2022-11-26T08:56:29.988Z,5.20
2022-11-26T08:58:56.874Z,5.20
2022-11-26T09:01:26.501Z,5.30
2022-11-26T09:03:55.988Z,5.30
2022-11-26T09:06:25.126Z,5.40
2022-11-26T09:09:10.697Z,5.50
2022-11-26T09:11:41.261Z,5.60
2022-11-26T09:14:08.981Z,5.60
2022-11-26T09:16:36.913Z,5.60
2022-11-26T09:19:06.300Z,5.70
2022-11-26T09:21:35.238Z,5.70
2022-11-26T09:24:02.775Z,5.80
2022-11-26T09:26:31.809Z,5.90
2022-11-26T09:28:58.846Z,5.90
2022-11-26T09:31:26.338Z,5.90
2022-11-26T09:33:56.834Z,6.00
2022-11-26T09:36:23.783Z,6.00
2022-11-26T09:38:57.552Z,6.10
2022-11-26T09:41:46.317Z,6.10
2022-11-26T09:44:37.915Z,6.20
2022-11-26T09:47:25.801Z,6.20
2022-11-26T09:50:13.173Z,6.30
2022-11-26T09:52:55.197Z,6.30
2022-11-26T09:55:24.112Z,6.20
2022-11-26T09:58:27.260Z,6.10
2022-11-26T10:00:56.775Z,6.10
2022-11-26T10:03:31.747Z,6.10
2022-11-26T10:06:11.475Z,6.10
2022-11-26T10:08:56.604Z,6.30
2022-11-26T10:11:45.283Z,6.40
2022-11-26T10:14:26.892Z,6.40
2022-11-26T10:17:12.325Z,6.30
2022-11-26T10:19:50.970Z,6.40
2022-11-26T10:22:45.815Z,6.50
2022-11-26T10:25:20.226Z,6.60
2022-11-26T10:27:49.575Z,6.60
2022-11-26T10:30:22.892Z,6.70
2022-11-26T10:32:51.279Z,6.80
2022-11-26T10:35:24.920Z,6.90
2022-11-26T10:37:52.306Z,7.10
2022-11-26T10:40:37.041Z,7.30
2022-11-26T10:43:09.750Z,7.40
2022-11-26T10:45:45.693Z,7.50
2022-11-26T10:48:31.495Z,7.60
2022-11-26T10:51:16.461Z,7.70
2022-11-26T10:53:56.998Z,7.70
2022-11-26T10:56:44.773Z,7.70
2022-11-26T10:59:36.530Z,7.80
2022-11-26T11:02:21.603Z,7.90
2022-11-26T11:04:52.062Z,7.90
2022-11-26T11:07:44.076Z,7.90
2022-11-26T11:10:11.725Z,7.90
2022-11-26T11:12:41.547Z,8.00
2022-11-26T11:15:25.271Z,8.10
2022-11-26T11:18:05.793Z,8.00
2022-11-26T11:20:38.991Z,8.10
2022-11-26T11:23:08.073Z,8.10
2022-11-26T11:25:38.466Z,8.10
2022-11-26T11:28:27.607Z,8.20
2022-11-26T11:31:13.603Z,8.30
2022-11-26T11:33:41.114Z,8.20
2022-11-26T11:36:14.076Z,8.20
2022-11-26T11:39:02.035Z,8.20
2022-11-26T11:41:47.505Z,8.20
2022-11-26T11:44:44.507Z,8.40
2022-11-26T11:47:32.409Z,8.40
2022-11-26T11:50:33.090Z,8.50
2022-11-26T11:53:41.118Z,8.40
2022-11-26T11:56:35.166Z,8.40
2022-11-26T11:59:09.125Z,8.50
2022-11-26T12:01:51.216Z,8.60
2022-11-26T12:04:33.575Z,8.80
2022-11-26T12:07:12.611Z,8.90
2022-11-26T12:10:16.699Z,8.90
2022-11-26T12:12:54.029Z,9.00
2022-11-26T12:15:28.622Z,9.00
2022-11-26T12:18:20.611Z,9.00
2022-11-26T12:20:53.407Z,9.10
2022-11-26T12:23:38.782Z,9.20
2022-11-26T12:26:15.243Z,9.20
2022-11-26T12:29:00.051Z,9.10
2022-11-26T12:31:49.191Z,9.20
2022-11-26T12:34:41.122Z,9.20
2022-11-26T12:37:23.329Z,9.20
2022-11-26T12:40:15.964Z,9.10
2022-11-26T12:42:59.892Z,9.10
2022-11-26T12:45:42.092Z,9.10
2022-11-26T12:48:39.841Z,9.10
2022-11-26T12:51:29.502Z,9.10
2022-11-26T12:54:06.878Z,9.10
2022-11-26T12:56:42.148Z,9.00
2022-11-26T12:59:18.262Z,9.00
2022-11-26T13:01:45.466Z,9.00
2022-11-26T13:04:36.748Z,9.00
2022-11-26T13:07:28.487Z,8.90
2022-11-26T13:10:38.001Z,8.90
2022-11-26T13:13:31.874Z,8.90
2022-11-26T13:16:11.066Z,8.90
2022-11-26T13:18:47.713Z,8.90
2022-11-26T13:21:24.477Z,8.90
2022-11-26T13:24:05.506Z,8.90
2022-11-26T13:27:11.498Z,8.90
2022-11-26T13:29:47.164Z,8.90
2022-11-26T13:32:39.480Z,9.00
2022-11-26T13:35:18.625Z,9.00
2022-11-26T13:38:03.345Z,9.00
2022-11-26T13:41:13.454Z,9.00
2022-11-26T13:43:54.744Z,8.90
2022-11-26T13:46:43.606Z,9.00
2022-11-26T13:49:21.372Z,8.90
2022-11-26T13:51:57.941Z,8.90
2022-11-26T13:54:42.946Z,8.90
2022-11-26T13:57:22.869Z,8.90
2022-11-26T13:59:52.534Z,8.90
2022-11-26T14:02:34.951Z,8.80
2022-11-26T14:05:06.366Z,8.90
2022-11-26T14:07:33.550Z,8.80
2022-11-26T14:10:02.519Z,8.80
2022-11-26T14:13:03.212Z,8.70
2022-11-26T14:15:42.388Z,8.70
2022-11-26T14:18:09.956Z,8.60
2022-11-26T14:20:58.278Z,8.60
2022-11-26T14:23:56.619Z,8.60
2022-11-26T14:26:39.051Z,8.50
2022-11-26T14:29:08.799Z,8.50
2022-11-26T14:31:51.309Z,8.40
2022-11-26T14:34:22.403Z,8.40
2022-11-26T14:37:00.582Z,8.30
2022-11-26T14:39:28.892Z,8.30
2022-11-26T14:42:03.785Z,8.20
2022-11-26T14:44:33.124Z,8.20
2022-11-26T14:47:09.547Z,8.20
2022-11-26T14:49:40.770Z,8.20
2022-11-26T14:52:21.333Z,8.20
2022-11-26T14:54:51.828Z,8.10
2022-11-26T14:57:25.909Z,8.10
2022-11-26T14:59:56.615Z,8.00
2022-11-26T15:02:25.921Z,7.90
2022-11-26T15:05:13.013Z,8.00
2022-11-26T15:07:39.962Z,7.90
2022-11-26T15:10:18.960Z,8.00
2022-11-26T15:12:48.307Z,7.90
2022-11-26T15:15:21.317Z,7.90
2022-11-26T15:17:53.618Z,7.90
2022-11-26T15:20:21.136Z,7.80
2022-11-26T15:22:58.284Z,7.80
2022-11-26T15:25:34.354Z,7.70
2022-11-26T15:28:18.641Z,7.70
2022-11-26T15:30:58.690Z,7.60
2022-11-26T15:33:28.252Z,7.60
2022-11-26T15:35:58.270Z,7.60
2022-11-26T15:38:36.284Z,7.50
2022-11-26T15:41:08.742Z,7.50
2022-11-26T15:43:47.677Z,7.40
2022-11-26T15:46:18.686Z,7.30
2022-11-26T15:48:56.021Z,7.20
2022-11-26T15:51:43.005Z,7.20
2022-11-26T15:54:18.959Z,7.10
2022-11-26T15:56:55.757Z,6.90
2022-11-26T15:59:26.003Z,6.80
2022-11-26T16:01:53.181Z,6.70
2022-11-26T16:04:40.016Z,6.60
2022-11-26T16:07:12.738Z,6.60
2022-11-26T16:09:40.350Z,6.50
2022-11-26T16:12:25.259Z,6.50
2022-11-26T16:14:52.082Z,6.50
2022-11-26T16:17:20.661Z,6.40
2022-11-26T16:19:56.495Z,6.40
2022-11-26T16:22:28.588Z,6.30
2022-11-26T16:25:39.817Z,6.30
2022-11-26T16:28:14.691Z,6.20
2022-11-26T16:30:44.090Z,6.20
2022-11-26T16:33:11.464Z,6.10
2022-11-26T16:35:47.089Z,6.10
2022-11-26T16:38:26.028Z,6.00
2022-11-26T16:40:54.434Z,5.90
2022-11-26T16:43:22.063Z,5.90
2022-11-26T16:45:53.552Z,5.90
2022-11-26T16:48:24.929Z,5.80
2022-11-26T16:50:54.401Z,5.80
2022-11-26T16:53:21.920Z,5.70
2022-11-26T16:55:51.143Z,5.70
2022-11-26T16:58:29.980Z,5.70
2022-11-26T17:00:58.174Z,5.60
2022-11-26T17:03:27.993Z,5.50
2022-11-26T17:05:58.406Z,5.50
2022-11-26T17:08:25.264Z,5.50
2022-11-26T17:10:52.666Z,5.30
2022-11-26T17:13:20.715Z,5.30
2022-11-26T17:15:49.581Z,5.20
2022-11-26T17:18:25.001Z,5.20
2022-11-26T17:20:54.246Z,5.20
2022-11-26T17:23:21.698Z,5.20
2022-11-26T17:25:53.527Z,5.20
2022-11-26T17:28:21.358Z,5.10
2022-11-26T17:30:48.298Z,5.00
2022-11-26T17:33:15.537Z,4.90
2022-11-26T17:35:42.926Z,4.80
2022-11-26T17:38:18.812Z,4.80
2022-11-26T17:40:46.507Z,4.80
2022-11-26T17:43:14.056Z,4.70
2022-11-26T17:45:41.987Z,4.60
2022-11-26T17:48:13.170Z,4.50
2022-11-26T17:50:41.499Z,4.50
2022-11-26T17:53:08.667Z,4.40
2022-11-26T17:55:36.047Z,4.40
2022-11-26T17:58:03.450Z,4.40
2022-11-26T18:00:30.710Z,4.30
2022-11-26T18:02:58.629Z,4.20
2022-11-26T18:05:25.840Z,4.30
2022-11-26T18:07:53.306Z,4.30
2022-11-26T18:10:21.935Z,4.20
2022-11-26T18:12:49.668Z,4.20
2022-11-26T18:15:18.754Z,4.10
2022-11-26T18:17:51.057Z,4.20
2022-11-26T18:20:22.466Z,4.10
2022-11-26T18:22:54.846Z,4.10
2022-11-26T18:25:22.824Z,4.20
2022-11-26T18:27:50.377Z,4.10
2022-11-26T18:30:17.632Z,4.00
2022-11-26T18:32:44.541Z,3.90
2022-11-26T18:35:13.565Z,3.80
2022-11-26T18:37:41.227Z,3.90
2022-11-26T18:40:14.578Z,3.70
2022-11-26T18:42:41.766Z,3.60
2022-11-26T18:45:12.178Z,3.70
2022-11-26T18:47:39.155Z,3.70
2022-11-26T18:50:07.669Z,3.70
2022-11-26T18:52:34.782Z,3.70
2022-11-26T18:55:04.837Z,3.60
2022-11-26T18:57:33.106Z,3.60
2022-11-26T19:00:00.235Z,3.60
2022-11-26T19:02:27.202Z,3.60
2022-11-26T19:04:54.335Z,3.70
2022-11-26T19:07:24.593Z,3.70
2022-11-26T19:09:51.944Z,3.80
2022-11-26T19:12:19.274Z,3.80
2022-11-26T19:14:46.630Z,3.80
2022-11-26T19:17:14.003Z,3.90
2022-11-26T19:19:41.787Z,4.00
2022-11-26T19:22:09.653Z,4.00
2022-11-26T19:24:36.884Z,4.10
2022-11-26T19:27:04.256Z,4.20
2022-11-26T19:29:31.592Z,4.30
2022-11-26T19:31:58.938Z,4.20
2022-11-26T19:34:26.122Z,4.20
2022-11-26T19:36:57.091Z,4.30
2022-11-26T19:39:24.351Z,4.60
2022-11-26T19:41:52.089Z,4.40
2022-11-26T19:44:19.317Z,4.40
2022-11-26T19:46:48.610Z,4.30
2022-11-26T19:49:15.986Z,4.30
2022-11-26T19:51:43.371Z,4.30
2022-11-26T19:54:11.007Z,4.40
2022-11-26T19:56:38.270Z,4.50
2022-11-26T19:59:05.346Z,4.50
2022-11-26T20:01:34.657Z,4.60
2022-11-26T20:04:05.401Z,4.50
2022-11-26T20:06:36.767Z,4.50
2022-11-26T20:09:06.143Z,4.50
2022-11-26T20:11:37.440Z,4.50
2022-11-26T20:14:05.270Z,4.50
2022-11-26T20:16:32.804Z,4.50
2022-11-26T20:19:01.966Z,4.50
2022-11-26T20:21:34.566Z,4.40
2022-11-26T20:24:05.551Z,4.30
2022-11-26T20:26:35.506Z,4.30
2022-11-26T20:29:07.436Z,4.40
2022-11-26T20:31:35.126Z,4.40
2022-11-26T20:34:03.990Z,4.40
2022-11-26T20:36:32.117Z,4.40
2022-11-26T20:39:02.238Z,4.40
2022-11-26T20:41:29.705Z,4.30
2022-11-26T20:43:59.349Z,4.40
2022-11-26T20:46:28.857Z,4.40
2022-11-26T20:48:56.518Z,4.50
2022-11-26T20:51:24.864Z,4.50
2022-11-26T20:53:53.317Z,4.70
2022-11-26T20:56:22.312Z,4.50
2022-11-26T20:58:50.890Z,4.50
2022-11-26T21:01:20.956Z,4.60
2022-11-26T21:03:48.370Z,4.60
2022-11-26T21:06:17.049Z,4.60
2022-11-26T21:08:44.579Z,4.70
2022-11-26T21:11:12.820Z,4.70
2022-11-26T21:13:40.309Z,4.70
2022-11-26T21:16:13.347Z,4.70
2022-11-26T21:18:40.967Z,4.60
2022-11-26T21:21:13.169Z,4.60
2022-11-26T21:23:42.316Z,4.70
2022-11-26T21:26:12.626Z,4.70
2022-11-26T21:28:39.564Z,4.70
2022-11-26T21:31:15.380Z,4.70
2022-11-26T21:33:42.918Z,4.80
2022-11-26T21:36:12.420Z,4.80
2022-11-26T21:38:39.367Z,4.80
2022-11-26T21:41:12.474Z,4.80
2022-11-26T21:43:40.131Z,4.90
2022-11-26T21:46:09.173Z,4.90
2022-11-26T21:48:36.234Z,4.90
2022-11-26T21:51:08.639Z,4.90
2022-11-26T21:53:36.397Z,4.90
2022-11-26T21:56:14.843Z,5.00
2022-11-26T21:58:41.894Z,5.00
2022-11-26T22:01:36.045Z,4.90
2022-11-26T22:04:07.418Z,4.90
2022-11-26T22:06:35.326Z,4.90
2022-11-26T22:09:03.514Z,4.90
2022-11-26T22:11:32.933Z,4.90
2022-11-26T22:14:00.052Z,4.90
2022-11-26T22:16:28.432Z,4.90
2022-11-26T22:18:56.493Z,5.00
2022-11-26T22:21:32.130Z,5.00
2022-11-26T22:24:00.569Z,5.00
2022-11-26T22:26:28.281Z,5.00
2022-11-26T22:28:55.854Z,5.00
2022-11-26T22:31:28.836Z,5.00
2022-11-26T22:34:12.536Z,5.00
2022-11-26T22:36:41.096Z,4.90
2022-11-26T22:39:11.942Z,4.90
2022-11-26T22:41:40.746Z,4.90
2022-11-26T22:44:08.256Z,4.90
2022-11-26T22:46:38.243Z,5.00
2022-11-26T22:49:06.018Z,5.00
2022-11-26T22:51:34.871Z,5.10
2022-11-26T22:54:04.055Z,5.00
2022-11-26T22:56:31.899Z,5.00
2022-11-26T22:58:58.812Z,5.00
2022-11-26T23:01:28.955Z,5.00
2022-11-26T23:03:57.230Z,5.00
2022-11-26T23:06:26.675Z,4.90
2022-11-26T23:08:54.817Z,4.90
2022-11-26T23:11:26.093Z,5.00
2022-11-26T23:13:54.051Z,4.90
2022-11-26T23:16:23.422Z,4.90
2022-11-26T23:18:51.626Z,5.00
2022-11-26T23:21:21.654Z,5.00
2022-11-26T23:23:49.283Z,5.00
2022-11-26T23:26:26.737Z,5.00
2022-11-26T23:28:54.200Z,5.00
2022-11-26T23:31:24.281Z,4.90
2022-11-26T23:33:51.473Z,4.90
2022-11-26T23:36:19.406Z,4.80
2022-11-26T23:38:46.512Z,4.80
2022-11-26T23:41:13.712Z,4.80
2022-11-26T23:43:40.954Z,4.70
2022-11-26T23:46:17.958Z,4.60
2022-11-26T23:48:45.451Z,4.60
2022-11-26T23:51:18.642Z,4.60
2022-11-26T23:53:47.460Z,4.60
2022-11-26T23:56:16.806Z,4.50
2022-11-26T23:58:43.994Z,4.60
